ADDS METAR Data INFO
IDs: Format: Raw Decoded Include TAF

Data at: 0214 UTC 18 Jan 2018

PASY 180058Z 18025G33KT 4SM BR SCT011 OVC020 02/01 A2925 RMK SHRAB2354E0038 OVC V BKN SLP909
PASY 180038Z 19027G32KT 4SM BR FEW010 SCT017 BKN029 BKN037 03/01 A2925 RMK SHRAB2354E0038 SLP909
PASY 172357Z 19021G30KT 6SM -SHRA BR SCT012 BKN022 BKN027 OVC037 02/01 A2925 RMK PK WND 18030/50 RAB34E44SHRAB54 SLP909 P0000 60002 50006
PASY 172259Z 18023G27KT 6SM BR FEW012 OVC023 03/01 A2925 RMK PK WND 19030/2224 SHRAB2119E2229 SLPNO 50018
PASY 172229Z 19023G30KT 6SM BR FEW015 BKN024 03/01 A2926 RMK SHRAB2119E2229 BKN V OVC SLPNO
PASY 172203Z COR 19023KT 5SM -SHRA BR FEW010 BKN016 OVC022 02/01 A2926 RMK SHRAB2119 CIG 013V017 SLP912 COR 2230
PASY 172158Z 19023G29KT 5SM -SHRA BR FEW006 BKN013 OVC020 02/01 A2925 RMK PK WND 19030/54 RAB02E14RAB19SHSNB29E39 PRESRR SLP909 P0002 T00230014
PASY 172139Z 19019KT 4SM -SHRA BR SCT008 OVC016 02/01 A2923 RMK RAB02E14RAB19SHSNB29E39 SLP902
PASY 172129Z 20019G22KT 2 1/2SM -SHRASN BR SCT007 OVC012 02/01 A2923 RMK VIS 2 1/2V3 RAB02E14RAB19SHSNB29 SLP902
PASY 172115Z 18015KT 5SM BR BKN014 OVC021 02/01 A2922 RMK RAB02E14 SLP899
PASY 172104Z 18016G22KT 3SM -RA BR BKN015 OVC020 02/01 A2922 RMK RAB02 SLP899
PASY 172057Z 19013KT 6SM BR BKN015 OVC021 02/01 A2923 RMK RAE11 SLP902 P0000 60000 T00230010 53013
PASY 172041Z 19016KT 6SM BR SCT010 BKN015 OVC024 02/01 A2923 RMK RAE11 SLP902
PASY 171959Z 18017KT 5SM -RA BR SCT010 BKN015 OVC021 02/01 A2921 RMK PK WND 15028/01 RAB58 CIG 009V015 SLP895
PASY 171855Z 15026KT 6SM BR SCT009 BKN015 02/01 A2918 RMK PK WND 16032/07 SCT009 V BKN SLP885
PASY 171842Z 16028KT 6SM BR SCT011 BKN019 02/00 A2919 RMK CIG 011V021 SLP888
PASY 171838Z AUTO 16028G31KT 6SM BR BKN011 BKN017 BKN030 OVC035 02/01 A2920 RMK AO2 CIG 011V021 BKN011 V SCT SLP892
PASY 171828Z AUTO 16026KT 6SM BR BKN012 BKN034 02/00 A2920 RMK AO2 CIG 012V021 BKN012 V SCT SLP892
PASY 171818Z AUTO 16021KT 4SM BR BKN015 BKN023 BKN036 02/00 A2919 RMK AO2 CIG 015V021 SLP888
PASY 171808Z AUTO 16028KT 4SM BR SCT014 BKN021 BKN030 BKN035 02/00 A2919 RMK AO2 CIG 021V030 BKN021 V SCT SLP888
PASY 171758Z AUTO 17026G35KT 4SM BR SCT015 BKN021 BKN034 02/00 A2919 RMK AO2 PK WND 15035/49 CIG 015V031 SLP888 60002 T00200001 10026 20019 55008
PASY 171748Z AUTO 16025G32KT 3SM BR SCT014 BKN030 BKN080 02/00 A2920 RMK AO2 LTG DSNT S SLP892
PASY 171738Z AUTO 17026G32KT 3SM BR BKN014 BKN019 BKN080 02/00 A2920 RMK AO2 CIG 014V080 BKN014 V SCT SLP892
PASY 171728Z AUTO 17025G32KT 3SM BR SCT014 SCT020 BKN030 02/00 A2920 RMK AO2 SLP892
PASY 171718Z AUTO 17024G32KT 3SM BR BKN017 02/01 A2920 RMK AO2 CIG 017V023 BKN V SCT SLP892
PASY 171708Z AUTO 17027G32KT 3SM BR FEW009 SCT019 BKN028 02/01 A2919 RMK AO2 CIG 018V028 SLP888
PASY 171658Z AUTO 18024G28KT 3SM BR FEW011 BKN018 BKN027 BKN034 02/01 A2919 RMK AO2 PK WND 17035/43 SLP888 T00190007
PASY 171628Z AUTO 17019G29KT 3SM BR FEW010 BKN015 BKN022 OVC030 02/01 A2920 RMK AO2 CIG 015V023 SLP892
PASY 171558Z AUTO 16016KT 3SM BR FEW011 BKN021 02/01 A2919 RMK AO2 PK WND 14028/1459 RAB15E34 CIG 016V021 SLP888 P0001 T00190009
PASY 171554Z AUTO 16017KT 3SM BR SCT010 BKN021 BKN026 BKN039 02/01 A2919 RMK AO2 RAB15E34 CIG 016V021 SLP888
PASY 171544Z AUTO 17018KT 3SM BR SCT010 BKN016 BKN027 02/01 A2919 RMK AO2 RAB15E34 CIG 011V016 SLP888
PASY 171534Z AUTO 15017KT 3SM BR BKN011 02/01 A2920 RMK AO2 RAB15E34 SLP892
PASY 171525Z AUTO 17014KT 2 1/2SM -RA BR BKN011 BKN021 OVC055 02/01 A2919 RMK AO2 RAB15 CIG 010V015 PRESFR SLP888
PASY 171515Z AUTO 16021G25KT 2 3/4SM -RA BR SCT010 BKN015 BKN023 OVC055 02/01 A2921 RMK AO2 RAB15 CIG 010V021 SLP895
PASY 171508Z AUTO 15021G28KT 3SM BR SCT009 BKN014 BKN021 BKN055 03/01 A2921 RMK AO2 CIG 008V014 SLP895
PASY 171458Z AUTO 14021G26KT 3SM BR BKN008 OVC015 02/01 A2921 RMK AO2 PK WND 15039/1358 RAE07RAB10E32 SLP895 P0000 60001 T00240014 50000
PASY 171452Z AUTO 14022G32KT 2 3/4SM BR BKN008 OVC013 02/01 A2920 RMK AO2 RAE07RAB10E32 SLP892
PASY 171432Z AUTO 14026G37KT 3SM BR BKN009 OVC015 02/01 A2920 RMK AO2 RAE07RAB10E32 BKN V OVC SLP892
PASY 171430Z AUTO 14026G37KT 3SM -RA BR BKN009 OVC017 02/01 A2920 RMK AO2 RAE07RAB10 SLP892
PASY 171410Z AUTO 14033G39KT 3SM -RA BR BKN010 BKN017 OVC024 02/01 A2920 RMK AO2 RAE07RAB10 CIG 010V017 BKN010 V SCT SLP892
PASY 171407Z AUTO 14027G39KT 3SM BR BKN011 BKN019 OVC026 02/01 A2920 RMK AO2 RAE07 SLP892
PASY 171358Z AUTO 14031G39KT 3SM -RA BR BKN011 OVC026 02/01 A2920 RMK AO2 PK WND 16042/33 RAB04 CIG 011V024 SLP892 P0000 T00240009
PASY 171349Z AUTO 14029G39KT 3SM -RA BR SCT012 SCT017 BKN024 OVC030 02/01 A2921 RMK AO2 RAB04 CIG 012V024 BKN V OVC SLP895
PASY 171309Z AUTO 14030G41KT 3SM -RA BR SQ FEW006 BKN014 OVC025 02/01 A2921 RMK AO2 RAB04 CIG 013V018 SLP895
PASY 171304Z AUTO 14028G40KT 3SM -RA BR FEW006 BKN015 BKN025 OVC041 02/01 A2921 RMK AO2 RAB04 CIG 013V018 SLP895
PASY 171258Z AUTO 14028G40KT 4SM BR BKN015 BKN025 OVC040 02/01 A2921 RMK AO2 PK WND 16047/18 RAB1158E40 CIG 015V021 BKN015 V SCT SLP895 P0001 T00240006
PASY 171250Z AUTO 14032G40KT 4SM BR FEW011 SCT016 BKN021 BKN026 OVC040 02/01 A2922 RMK AO2 RAB1158E40 CIG 019V040 SLP899
PASY 171240Z AUTO 15034G41KT 4SM BR FEW012 SCT018 OVC040 02/01 A2922 RMK AO2 RAB1158E40 SLP899
PASY 171239Z AUTO 14034G41KT 4SM -RA BR FEW012 SCT018 OVC040 02/01 A2922 RMK AO2 RAB1158 SLP899
PASY 171219Z AUTO 15037G47KT 2 3/4SM -RA BR BKN019 OVC060 02/00 A2922 RMK AO2 RAB1158 BKN V OVC SLP899
PASY 171209Z AUTO 16034G47KT 3SM -RA BKN019 OVC024 03/00 A2922 RMK AO2 RAB1158 SLP899
PASY 171159Z AUTO 15039G48KT 4SM -RA BKN021 BKN029 OVC048 03/00 A2921 RMK AO2 RAB58 CIG 021V026 SLP895
PASY 171158Z 15034G48KT 4SM HZ SCT019 BKN024 BKN029 OVC048 03/00 A2922 RMK AO2A RAE25 SLP899 P0000 60006 12HR ESTMD PRECIP 70006 24HR ESTMD PRECIP T00260002 10027 20014
PASY 171157Z 14032G42KT 4SM HZ SQ SCT019 BKN024 BKN029 BKN048 OVC055 03/00 A2922
PASY 171155Z 14031G47KT 4SM HZ SCT019 BKN026 BKN048 OVC055 03/00 A2922 RMK AO2A RAE25 CIG 024V050 SLP899
PASY 171123Z AUTO 14034G43KT 3SM BR SCT020 OVC055 02/00 A2923 RMK AO2 RAE13 SLP902
PASY 171113Z AUTO 15034G43KT 3SM BR SCT020 BKN028 BKN055 02/01 A2924 RMK AO2 RAE13 CIG 026V060 BKN028 V SCT SLP905
PASY 171108Z AUTO 15029G37KT 2 3/4SM -RA BR FEW016 SCT022 BKN055 02/00 A2923 RMK AO2 SLP902
PASY 171058Z AUTO 16032G41KT 2 3/4SM -RA SCT016 SCT023 BKN028 BKN060 03/00 A2924 RMK AO2 PK WND 15041/47 RAB08E17RAB56 CIG 028V060 BKN028 V SCT SLP905 P0000
PASY 171056Z AUTO 16034G41KT 3SM -RA FEW016 SCT021 BKN028 BKN060 03/00 A2924 RMK AO2 RAB08E17RAB56 CIG 028V060 BKN028 V SCT SLP905
PASY 171017Z AUTO 14029G39KT 3SM BR FEW013 SCT023 BKN060 OVC075 02/01 A2926 RMK AO2 RAB08E17 SLP912
PASY 171011Z AUTO 14031G40KT 3SM -RA BR FEW010 SCT014 BKN021 BKN050 BKN060 OVC075 02/01 A2926 RMK AO2 RAB08 SLP912
PASY 171008Z AUTO 14032G40KT 3SM -RA BR SCT013 BKN021 BKN060 02/01 A2926 RMK AO2 RAB08 SLP912
PASY 170958Z AUTO 14030G36KT 3SM BR FEW014 BKN021 BKN026 BKN060 02/01 A2926 RMK AO2 PK WND 12050/08 RAE35RAB40E58 CIG 021V029 SLP912 P0001 T00200008
PASY 170950Z AUTO 15028G39KT 2 1/2SM -RA BR FEW010 BKN024 BKN040 OVC080 02/01 A2926 RMK AO2 VIS 2 1/2V3 RAE35RAB40 CIG 019V024 SLP912
PASY 170940Z AUTO 14027G38KT 3SM -RA BR FEW007 SCT012 BKN021 BKN027 OVC085 02/01 A2927 RMK AO2 RAE35RAB40 CIG 014V026 SLP916
PASY 170935Z AUTO 14032G38KT 3SM BR FEW009 SCT016 BKN026 OVC085 02/01 A2926 RMK AO2 RAE35 CIG 014V026 SLP912
PASY 170928Z AUTO 14030G40KT 2 1/2SM -RA BR SCT009 BKN014 OVC019 02/01 A2926 RMK AO2 VIS 2 1/4V2 3/4 CIG 009V014 BKN V OVC SLP912
PASY 170858Z AUTO 11035G44KT 3SM -RA BR BKN008 BKN013 OVC018 02/01 A2928 RMK AO2 PK WND 12046/16 PRESFR SLP919 P0001 60005 57052
PASY 170828Z AUTO 11039G44KT 2 3/4SM -RA BR OVC008 02/01 A2931 RMK AO2 PRESFR SLP929
PASY 170808Z AUTO 11039G46KT 3SM -RA BR OVC008 02/01 A2933 RMK AO2 SLP936
PASY 170758Z AUTO 11035G45KT 3SM -RA BR OVC007 02/01 A2934 RMK AO2 PK WND 11051/43 LTG DSNT S SLP939 P0002 T00180009
PASY 170738Z AUTO 12044G50KT 3SM -RA BR BKN006 OVC014 02/01 A2935 RMK AO2 PRESFR SLP943
PASY 170708Z AUTO 12040G47KT 2 1/2SM -RA BR BKN006 OVC011 01/01 A2938 RMK AO2 SLP953
PASY 170658Z AUTO 13036G47KT 2 1/4SM -RA BR SCT006 OVC012 01/01 A2939 RMK AO2 PK WND 13049/04 VIS 2 1/4V2 3/4 CIG 006V013 SLP956 P0002 T00140006
PASY 170628Z AUTO 12036G45KT 2 1/2SM -RA BR FEW008 OVC013 01/00 A2941 RMK AO2 SLP963
PASY 170618Z AUTO 13037G46KT 2 3/4SM -RA BR OVC016 01/00 A2942 RMK AO2 SLP966
PASY 170558Z AUTO 13041G47KT 4SM -RA OVC022 02/00 A2944 RMK AO2 PK WND 12047/37 RAB28 SLP973 P0000 60000 T00191004 10025 20018 57056
PASY 170528Z AUTO 12036G46KT 6SM -RA OVC022 02/M01 A2946 RMK AO2 RAB28 SLP980
PASY 170458Z AUTO 12036G43KT 7SM BKN025 OVC032 02/M02 A2949 RMK AO2 PK WND 13046/39 SLP990 T00241019
PASY 170448Z AUTO 13041G46KT 7SM BKN025 OVC033 02/M02 A2950 RMK AO2 CIG 025V033 BKN V SCT PRESFR SLP994
PASY 170418Z AUTO 12039G43KT 6SM HZ SCT023 OVC033 02/M02 A2953 RMK AO2 PRESFR SLP004
PASY 170358Z AUTO 12031G40KT 7SM BKN025 OVC034 02/M02 A2955 RMK AO2 PK WND 13042/44 SLP010 T00231019
PASY 170348Z AUTO 13034G42KT 7SM BKN027 OVC035 02/M02 A2955 RMK AO2 CIG 027V034 PRESFR SLP010
PASY 170338Z AUTO 12031G39KT 7SM SCT029 OVC034 02/M02 A2957 RMK AO2 SLP017
PASY 170258Z AUTO 13031G37KT 7SM BKN026 OVC032 02/M02 A2960 RMK AO2 PK WND 13037/50 SLP027 T00221021 57051
PASY 170158Z AUTO 13025G33KT 7SM BKN025 OVC034 02/M02 A2965 RMK AO2 PK WND 13037/36 SLP044 T00221018
PASY 170058Z AUTO 14024G33KT 7SM BKN027 OVC036 02/M03 A2971 RMK AO2 PK WND 14033/50 SLP065 T00201030
PASY 170018Z AUTO 14024G32KT 7SM BKN029 BKN036 OVC085 02/M03 A2973 RMK AO2 PRESFR SLP072
PASY 162358Z AUTO 14022G27KT 7SM FEW030 SCT035 OVC090 02/M03 A2975 RMK AO2 PK WND 14028/10 SLP078 T00221031 10025 20012 57028
PASY 162258Z AUTO 15020KT 7SM BKN070 OVC100 02/M03 A2980 RMK AO2 SLP095 T00241032
PASY 162158Z AUTO 16019KT 7SM FEW024 SCT033 BKN043 02/M03 A2983 RMK AO2 SLP105 T00211028
PASY 162058Z AUTO 17018KT 7SM SCT050 02/M02 A2984 RMK AO2 SLP109 T00151018 51004
PASY 161958Z AUTO 18015KT 7SM OVC050 01/M02 A2984 RMK AO2 SLP109 T00141022
PASY 161858Z AUTO 19014KT 7SM FEW017 BKN047 01/M02 A2983 RMK AO2 SLP105 T00131021
PASY 161818Z AUTO 21013KT 7SM SCT019 BKN043 BKN050 02/M01 A2984 RMK AO2 SLP109
PASY 161758Z AUTO 19012KT 7SM FEW024 SCT033 BKN041 BKN049 01/M02 A2982 RMK AO2 SLP102 T00131018 10016 21006 58004
PASY 161658Z AUTO 20012KT 7SM OVC034 02/M03 A2984 RMK AO2 SLP109 T00151031
PASY 161558Z AUTO 22016KT 7SM SCT030 BKN037 01/M04 A2984 RMK AO2 SLP109 T00121036
PASY 161458Z AUTO 24014KT 7SM BKN036 01/M04 A2984 RMK AO2 PK WND 24027/00 SLP109 T00071042 52026